sensor_id;sensor_type;location;lat;lon;timestamp;temperature;humidity
26907;DHT22;14472;56.880;16.658;2023-07-13T00:00:33;18.90;96.90
26907;DHT22;14472;56.880;16.658;2023-07-13T00:02:59;18.90;96.40
26907;DHT22;14472;56.880;16.658;2023-07-13T00:05:25;18.90;94.80
26907;DHT22;14472;56.880;16.658;2023-07-13T00:07:51;18.80;94.40
26907;DHT22;14472;56.880;16.658;2023-07-13T00:10:18;18.80;95.40
26907;DHT22;14472;56.880;16.658;2023-07-13T00:12:44;18.80;96.20
26907;DHT22;14472;56.880;16.658;2023-07-13T00:15:22;18.80;98.10
26907;DHT22;14472;56.880;16.658;2023-07-13T00:17:53;18.80;97.40
26907;DHT22;14472;56.880;16.658;2023-07-13T00:20:20;18.80;98.60
26907;DHT22;14472;56.880;16.658;2023-07-13T00:22:48;18.80;99.60
26907;DHT22;14472;56.880;16.658;2023-07-13T00:25:14;18.70;99.90
26907;DHT22;14472;56.880;16.658;2023-07-13T00:27:42;18.70;99.90
26907;DHT22;14472;56.880;16.658;2023-07-13T00:30:08;18.70;99.90
26907;DHT22;14472;56.880;16.658;2023-07-13T00:32:35;18.70;99.90
26907;DHT22;14472;56.880;16.658;2023-07-13T00:35:01;18.70;99.90
26907;DHT22;14472;56.880;16.658;2023-07-13T00:37:28;18.70;99.90
26907;DHT22;14472;56.880;16.658;2023-07-13T00:39:54;18.70;99.90
26907;DHT22;14472;56.880;16.658;2023-07-13T00:42:20;18.70;99.90
26907;DHT22;14472;56.880;16.658;2023-07-13T00:47:47;18.70;99.90
26907;DHT22;14472;56.880;16.658;2023-07-13T00:50:15;18.70;99.90
26907;DHT22;14472;56.880;16.658;2023-07-13T00:52:45;18.70;99.90
26907;DHT22;14472;56.880;16.658;2023-07-13T00:55:13;18.70;99.90
26907;DHT22;14472;56.880;16.658;2023-07-13T00:57:40;18.60;99.90
26907;DHT22;14472;56.880;16.658;2023-07-13T01:00:07;18.60;99.90
26907;DHT22;14472;56.880;16.658;2023-07-13T01:02:37;18.60;99.90
26907;DHT22;14472;56.880;16.658;2023-07-13T01:05:11;18.60;99.90
26907;DHT22;14472;56.880;16.658;2023-07-13T01:07:38;18.60;99.90
26907;DHT22;14472;56.880;16.658;2023-07-13T01:10:05;18.60;99.90
26907;DHT22;14472;56.880;16.658;2023-07-13T01:12:31;18.60;99.90
26907;DHT22;14472;56.880;16.658;2023-07-13T01:14:58;18.60;99.90
26907;DHT22;14472;56.880;16.658;2023-07-13T01:17:26;18.60;99.90
26907;DHT22;14472;56.880;16.658;2023-07-13T01:19:52;18.60;99.90
26907;DHT22;14472;56.880;16.658;2023-07-13T01:22:19;18.50;99.90
26907;DHT22;14472;56.880;16.658;2023-07-13T01:24:48;18.50;99.90
26907;DHT22;14472;56.880;16.658;2023-07-13T01:27:16;18.50;99.90
26907;DHT22;14472;56.880;16.658;2023-07-13T01:29:44;18.50;99.90
26907;DHT22;14472;56.880;16.658;2023-07-13T01:32:15;18.50;99.90
26907;DHT22;14472;56.880;16.658;2023-07-13T01:34:41;18.50;99.90
26907;DHT22;14472;56.880;16.658;2023-07-13T01:37:08;18.50;99.90
26907;DHT22;14472;56.880;16.658;2023-07-13T01:39:35;18.50;99.90
26907;DHT22;14472;56.880;16.658;2023-07-13T01:42:01;18.40;99.90
26907;DHT22;14472;56.880;16.658;2023-07-13T01:44:30;18.40;99.90
26907;DHT22;14472;56.880;16.658;2023-07-13T01:46:56;18.40;99.90
26907;DHT22;14472;56.880;16.658;2023-07-13T01:49:22;18.40;99.90
26907;DHT22;14472;56.880;16.658;2023-07-13T01:51:47;18.40;99.90
26907;DHT22;14472;56.880;16.658;2023-07-13T01:54:16;18.30;99.90
26907;DHT22;14472;56.880;16.658;2023-07-13T01:56:42;18.30;99.90
26907;DHT22;14472;56.880;16.658;2023-07-13T01:59:08;18.30;99.90
26907;DHT22;14472;56.880;16.658;2023-07-13T02:01:34;18.30;99.90
26907;DHT22;14472;56.880;16.658;2023-07-13T02:04:00;18.30;99.90
26907;DHT22;14472;56.880;16.658;2023-07-13T02:06:26;18.30;99.90
26907;DHT22;14472;56.880;16.658;2023-07-13T02:08:52;18.30;99.90
26907;DHT22;14472;56.880;16.658;2023-07-13T02:11:18;18.30;99.90
26907;DHT22;14472;56.880;16.658;2023-07-13T02:13:43;18.20;99.90
26907;DHT22;14472;56.880;16.658;2023-07-13T02:16:09;18.20;99.90
26907;DHT22;14472;56.880;16.658;2023-07-13T02:18:35;18.20;99.90
26907;DHT22;14472;56.880;16.658;2023-07-13T02:21:00;18.20;99.90
26907;DHT22;14472;56.880;16.658;2023-07-13T02:23:29;18.20;99.90
26907;DHT22;14472;56.880;16.658;2023-07-13T02:26:01;18.10;99.90
26907;DHT22;14472;56.880;16.658;2023-07-13T02:28:28;18.20;99.90
26907;DHT22;14472;56.880;16.658;2023-07-13T02:30:54;18.20;99.90
26907;DHT22;14472;56.880;16.658;2023-07-13T02:33:20;18.20;99.90
26907;DHT22;14472;56.880;16.658;2023-07-13T02:35:46;18.20;99.90
26907;DHT22;14472;56.880;16.658;2023-07-13T02:38:11;18.10;99.90
26907;DHT22;14472;56.880;16.658;2023-07-13T02:40:37;18.10;99.90
26907;DHT22;14472;56.880;16.658;2023-07-13T02:43:03;18.10;99.90
26907;DHT22;14472;56.880;16.658;2023-07-13T02:45:29;18.10;99.90
26907;DHT22;14472;56.880;16.658;2023-07-13T02:47:55;18.00;99.90
26907;DHT22;14472;56.880;16.658;2023-07-13T02:50:21;18.00;99.90
26907;DHT22;14472;56.880;16.658;2023-07-13T02:52:47;17.90;99.90
26907;DHT22;14472;56.880;16.658;2023-07-13T02:55:12;17.90;99.90
26907;DHT22;14472;56.880;16.658;2023-07-13T02:57:38;17.90;99.90
26907;DHT22;14472;56.880;16.658;2023-07-13T03:00:05;17.80;99.90
26907;DHT22;14472;56.880;16.658;2023-07-13T03:02:32;17.80;99.90
26907;DHT22;14472;56.880;16.658;2023-07-13T03:04:58;17.80;99.90
26907;DHT22;14472;56.880;16.658;2023-07-13T03:07:24;17.80;99.90
26907;DHT22;14472;56.880;16.658;2023-07-13T03:09:55;17.80;99.90
26907;DHT22;14472;56.880;16.658;2023-07-13T03:12:21;17.70;99.90
26907;DHT22;14472;56.880;16.658;2023-07-13T03:14:47;17.70;99.90
26907;DHT22;14472;56.880;16.658;2023-07-13T03:17:13;17.70;99.90
26907;DHT22;14472;56.880;16.658;2023-07-13T03:19:38;17.70;99.90
26907;DHT22;14472;56.880;16.658;2023-07-13T03:22:04;17.70;99.90
26907;DHT22;14472;56.880;16.658;2023-07-13T03:24:32;17.70;99.90
26907;DHT22;14472;56.880;16.658;2023-07-13T03:26:58;17.80;99.90
26907;DHT22;14472;56.880;16.658;2023-07-13T03:29:24;17.70;99.90
26907;DHT22;14472;56.880;16.658;2023-07-13T03:31:50;17.70;99.90
26907;DHT22;14472;56.880;16.658;2023-07-13T03:34:15;17.70;99.90
26907;DHT22;14472;56.880;16.658;2023-07-13T03:36:41;17.70;99.90
26907;DHT22;14472;56.880;16.658;2023-07-13T03:39:08;17.70;99.90
26907;DHT22;14472;56.880;16.658;2023-07-13T03:41:34;17.70;99.90
26907;DHT22;14472;56.880;16.658;2023-07-13T03:44:00;17.70;99.90
26907;DHT22;14472;56.880;16.658;2023-07-13T03:46:25;17.80;99.90
26907;DHT22;14472;56.880;16.658;2023-07-13T03:48:51;17.70;99.90
26907;DHT22;14472;56.880;16.658;2023-07-13T03:51:18;17.80;99.90
26907;DHT22;14472;56.880;16.658;2023-07-13T03:53:46;17.80;99.90
26907;DHT22;14472;56.880;16.658;2023-07-13T03:56:13;17.80;99.90
26907;DHT22;14472;56.880;16.658;2023-07-13T03:58:44;17.80;99.90
26907;DHT22;14472;56.880;16.658;2023-07-13T04:01:12;17.80;99.90
26907;DHT22;14472;56.880;16.658;2023-07-13T04:03:38;17.80;99.90
26907;DHT22;14472;56.880;16.658;2023-07-13T04:06:05;17.80;99.90
26907;DHT22;14472;56.880;16.658;2023-07-13T04:08:33;17.80;99.90
26907;DHT22;14472;56.880;16.658;2023-07-13T04:11:00;17.80;99.90
26907;DHT22;14472;56.880;16.658;2023-07-13T04:13:26;17.80;99.90
26907;DHT22;14472;56.880;16.658;2023-07-13T04:15:52;17.80;99.90
26907;DHT22;14472;56.880;16.658;2023-07-13T04:18:19;17.80;99.90
26907;DHT22;14472;56.880;16.658;2023-07-13T04:20:46;17.80;99.90
26907;DHT22;14472;56.880;16.658;2023-07-13T04:23:12;17.80;99.90
26907;DHT22;14472;56.880;16.658;2023-07-13T04:25:38;17.80;99.90
26907;DHT22;14472;56.880;16.658;2023-07-13T04:28:06;17.80;99.90
26907;DHT22;14472;56.880;16.658;2023-07-13T04:30:32;17.80;99.90
26907;DHT22;14472;56.880;16.658;2023-07-13T04:32:58;17.80;99.90
26907;DHT22;14472;56.880;16.658;2023-07-13T04:35:23;17.80;99.90
26907;DHT22;14472;56.880;16.658;2023-07-13T04:37:49;17.90;99.90
26907;DHT22;14472;56.880;16.658;2023-07-13T04:40:19;17.90;99.90
26907;DHT22;14472;56.880;16.658;2023-07-13T04:42:46;17.80;99.90
26907;DHT22;14472;56.880;16.658;2023-07-13T04:45:13;17.90;99.90
26907;DHT22;14472;56.880;16.658;2023-07-13T04:47:40;17.90;99.90
26907;DHT22;14472;56.880;16.658;2023-07-13T04:50:07;17.90;99.90
26907;DHT22;14472;56.880;16.658;2023-07-13T04:52:33;18.00;99.90
26907;DHT22;14472;56.880;16.658;2023-07-13T04:55:00;18.00;99.90
26907;DHT22;14472;56.880;16.658;2023-07-13T04:57:26;18.00;99.90
26907;DHT22;14472;56.880;16.658;2023-07-13T04:59:53;18.00;99.90
26907;DHT22;14472;56.880;16.658;2023-07-13T05:02:20;18.10;99.90
26907;DHT22;14472;56.880;16.658;2023-07-13T05:04:47;18.00;99.90
26907;DHT22;14472;56.880;16.658;2023-07-13T05:07:13;18.10;99.90
26907;DHT22;14472;56.880;16.658;2023-07-13T05:09:39;18.10;99.90
26907;DHT22;14472;56.880;16.658;2023-07-13T05:12:06;18.10;99.90
26907;DHT22;14472;56.880;16.658;2023-07-13T05:14:32;18.10;99.90
26907;DHT22;14472;56.880;16.658;2023-07-13T05:16:58;18.10;99.90
26907;DHT22;14472;56.880;16.658;2023-07-13T05:19:24;18.10;99.90
26907;DHT22;14472;56.880;16.658;2023-07-13T05:21:49;18.20;99.90
26907;DHT22;14472;56.880;16.658;2023-07-13T05:24:15;18.20;99.90
26907;DHT22;14472;56.880;16.658;2023-07-13T05:26:41;18.20;99.90
26907;DHT22;14472;56.880;16.658;2023-07-13T05:29:07;18.20;99.90
26907;DHT22;14472;56.880;16.658;2023-07-13T05:31:32;18.20;99.90
26907;DHT22;14472;56.880;16.658;2023-07-13T05:33:58;18.20;99.90
26907;DHT22;14472;56.880;16.658;2023-07-13T05:36:24;18.20;99.90
26907;DHT22;14472;56.880;16.658;2023-07-13T05:38:49;18.20;99.90
26907;DHT22;14472;56.880;16.658;2023-07-13T05:41:15;18.20;99.90
26907;DHT22;14472;56.880;16.658;2023-07-13T05:43:41;18.20;99.90
26907;DHT22;14472;56.880;16.658;2023-07-13T05:46:06;18.20;99.90
26907;DHT22;14472;56.880;16.658;2023-07-13T05:48:32;18.20;99.90
26907;DHT22;14472;56.880;16.658;2023-07-13T05:50:58;18.20;99.90
26907;DHT22;14472;56.880;16.658;2023-07-13T05:53:24;18.30;99.90
26907;DHT22;14472;56.880;16.658;2023-07-13T05:55:49;18.30;99.90
26907;DHT22;14472;56.880;16.658;2023-07-13T05:58:17;18.30;99.90
26907;DHT22;14472;56.880;16.658;2023-07-13T06:00:43;18.30;99.90
26907;DHT22;14472;56.880;16.658;2023-07-13T06:03:09;18.30;99.90
26907;DHT22;14472;56.880;16.658;2023-07-13T06:05:36;18.40;99.90
26907;DHT22;14472;56.880;16.658;2023-07-13T06:08:04;18.40;99.90
26907;DHT22;14472;56.880;16.658;2023-07-13T06:10:32;18.40;99.90
26907;DHT22;14472;56.880;16.658;2023-07-13T06:12:57;18.40;99.90
26907;DHT22;14472;56.880;16.658;2023-07-13T06:15:23;18.50;99.90
26907;DHT22;14472;56.880;16.658;2023-07-13T06:17:49;18.60;99.90
26907;DHT22;14472;56.880;16.658;2023-07-13T06:20:15;18.60;99.90
26907;DHT22;14472;56.880;16.658;2023-07-13T06:22:40;18.60;99.90
26907;DHT22;14472;56.880;16.658;2023-07-13T06:25:06;18.70;99.90
26907;DHT22;14472;56.880;16.658;2023-07-13T06:27:32;18.70;99.90
26907;DHT22;14472;56.880;16.658;2023-07-13T06:29:58;18.70;99.90
26907;DHT22;14472;56.880;16.658;2023-07-13T06:32:24;18.80;99.90
26907;DHT22;14472;56.880;16.658;2023-07-13T06:34:50;18.80;99.20
26907;DHT22;14472;56.880;16.658;2023-07-13T06:37:17;18.80;99.90
26907;DHT22;14472;56.880;16.658;2023-07-13T06:39:43;18.90;98.80
26907;DHT22;14472;56.880;16.658;2023-07-13T06:42:10;18.90;91.90
26907;DHT22;14472;56.880;16.658;2023-07-13T06:44:36;18.90;87.10
26907;DHT22;14472;56.880;16.658;2023-07-13T06:47:02;19.00;86.60
26907;DHT22;14472;56.880;16.658;2023-07-13T06:49:28;19.00;75.70
26907;DHT22;14472;56.880;16.658;2023-07-13T06:51:53;19.10;61.60
26907;DHT22;14472;56.880;16.658;2023-07-13T06:54:19;19.10;56.20
26907;DHT22;14472;56.880;16.658;2023-07-13T06:56:45;19.20;49.40
26907;DHT22;14472;56.880;16.658;2023-07-13T06:59:10;19.20;46.40
26907;DHT22;14472;56.880;16.658;2023-07-13T07:01:36;19.30;39.10
26907;DHT22;14472;56.880;16.658;2023-07-13T07:04:03;19.30;25.80
26907;DHT22;14472;56.880;16.658;2023-07-13T07:06:29;19.40;19.10
26907;DHT22;14472;56.880;16.658;2023-07-13T07:08:55;19.50;17.30
26907;DHT22;14472;56.880;16.658;2023-07-13T07:11:25;19.60;13.70
26907;DHT22;14472;56.880;16.658;2023-07-13T07:13:52;19.50;9.70
26907;DHT22;14472;56.880;16.658;2023-07-13T07:16:19;19.60;11.90
26907;DHT22;14472;56.880;16.658;2023-07-13T07:18:46;19.60;4.80
26907;DHT22;14472;56.880;16.658;2023-07-13T07:21:12;19.70;1.00
26907;DHT22;14472;56.880;16.658;2023-07-13T07:23:38;19.80;1.00
26907;DHT22;14472;56.880;16.658;2023-07-13T07:26:04;19.80;1.00
26907;DHT22;14472;56.880;16.658;2023-07-13T07:28:30;19.80;1.00
26907;DHT22;14472;56.880;16.658;2023-07-13T07:30:57;19.90;1.00
26907;DHT22;14472;56.880;16.658;2023-07-13T07:33:24;19.90;1.00
26907;DHT22;14472;56.880;16.658;2023-07-13T07:35:50;19.90;1.00
26907;DHT22;14472;56.880;16.658;2023-07-13T07:38:16;19.90;1.00
26907;DHT22;14472;56.880;16.658;2023-07-13T07:40:42;20.00;1.00
26907;DHT22;14472;56.880;16.658;2023-07-13T07:43:09;20.00;1.00
26907;DHT22;14472;56.880;16.658;2023-07-13T07:45:36;20.10;1.00
26907;DHT22;14472;56.880;16.658;2023-07-13T07:48:04;20.10;1.00
26907;DHT22;14472;56.880;16.658;2023-07-13T07:50:30;20.20;1.00
26907;DHT22;14472;56.880;16.658;2023-07-13T07:52:56;20.20;1.00
26907;DHT22;14472;56.880;16.658;2023-07-13T07:55:23;20.30;1.00
26907;DHT22;14472;56.880;16.658;2023-07-13T07:57:49;20.30;1.00
26907;DHT22;14472;56.880;16.658;2023-07-13T08:00:16;20.30;1.00
26907;DHT22;14472;56.880;16.658;2023-07-13T08:02:43;20.40;1.00
26907;DHT22;14472;56.880;16.658;2023-07-13T08:05:09;20.50;1.00
26907;DHT22;14472;56.880;16.658;2023-07-13T08:07:37;20.60;1.00
26907;DHT22;14472;56.880;16.658;2023-07-13T08:10:03;20.60;1.00
26907;DHT22;14472;56.880;16.658;2023-07-13T08:12:29;20.70;1.00
26907;DHT22;14472;56.880;16.658;2023-07-13T08:14:55;20.80;1.00
26907;DHT22;14472;56.880;16.658;2023-07-13T08:17:24;20.80;1.00
26907;DHT22;14472;56.880;16.658;2023-07-13T08:19:50;20.80;1.00
26907;DHT22;14472;56.880;16.658;2023-07-13T08:22:16;20.80;1.00
26907;DHT22;14472;56.880;16.658;2023-07-13T08:24:41;20.80;1.00
26907;DHT22;14472;56.880;16.658;2023-07-13T08:27:11;20.80;1.00
26907;DHT22;14472;56.880;16.658;2023-07-13T08:29:37;20.90;1.00
26907;DHT22;14472;56.880;16.658;2023-07-13T08:32:04;20.80;1.00
26907;DHT22;14472;56.880;16.658;2023-07-13T08:34:31;20.80;1.00
26907;DHT22;14472;56.880;16.658;2023-07-13T08:36:57;20.90;1.00
26907;DHT22;14472;56.880;16.658;2023-07-13T08:39:22;21.00;1.00
26907;DHT22;14472;56.880;16.658;2023-07-13T08:41:50;21.10;1.00
26907;DHT22;14472;56.880;16.658;2023-07-13T08:44:30;21.20;1.00
26907;DHT22;14472;56.880;16.658;2023-07-13T08:46:58;21.20;1.00
26907;DHT22;14472;56.880;16.658;2023-07-13T08:49:25;21.20;1.00
26907;DHT22;14472;56.880;16.658;2023-07-13T08:52:03;21.30;1.00
26907;DHT22;14472;56.880;16.658;2023-07-13T08:54:38;21.30;1.00
26907;DHT22;14472;56.880;16.658;2023-07-13T08:57:20;21.30;1.00
26907;DHT22;14472;56.880;16.658;2023-07-13T08:59:47;21.30;1.00
26907;DHT22;14472;56.880;16.658;2023-07-13T09:02:26;21.40;1.00
26907;DHT22;14472;56.880;16.658;2023-07-13T09:05:08;21.40;1.00
26907;DHT22;14472;56.880;16.658;2023-07-13T09:10:46;21.60;1.00
26907;DHT22;14472;56.880;16.658;2023-07-13T09:15:50;21.80;1.00
26907;DHT22;14472;56.880;16.658;2023-07-13T09:18:22;21.90;1.00
26907;DHT22;14472;56.880;16.658;2023-07-13T09:20:50;21.90;1.00
26907;DHT22;14472;56.880;16.658;2023-07-13T09:23:20;21.90;1.00
26907;DHT22;14472;56.880;16.658;2023-07-13T09:25:48;22.00;1.00
26907;DHT22;14472;56.880;16.658;2023-07-13T09:28:29;22.10;1.00
26907;DHT22;14472;56.880;16.658;2023-07-13T09:31:10;22.20;1.00
26907;DHT22;14472;56.880;16.658;2023-07-13T09:33:38;22.20;1.00
26907;DHT22;14472;56.880;16.658;2023-07-13T09:36:26;22.30;1.00
26907;DHT22;14472;56.880;16.658;2023-07-13T09:39:15;22.30;1.00
26907;DHT22;14472;56.880;16.658;2023-07-13T09:44:39;22.40;1.00
26907;DHT22;14472;56.880;16.658;2023-07-13T09:47:20;22.40;1.00
26907;DHT22;14472;56.880;16.658;2023-07-13T09:52:24;22.40;1.00
26907;DHT22;14472;56.880;16.658;2023-07-13T09:54:52;22.50;1.00
26907;DHT22;14472;56.880;16.658;2023-07-13T09:57:25;22.40;1.00
26907;DHT22;14472;56.880;16.658;2023-07-13T09:59:52;22.40;1.00
26907;DHT22;14472;56.880;16.658;2023-07-13T10:02:35;22.50;1.00
26907;DHT22;14472;56.880;16.658;2023-07-13T10:05:06;22.50;1.00
26907;DHT22;14472;56.880;16.658;2023-07-13T10:07:38;22.50;1.00
26907;DHT22;14472;56.880;16.658;2023-07-13T10:10:17;22.60;1.00
26907;DHT22;14472;56.880;16.658;2023-07-13T10:12:44;22.60;1.00
26907;DHT22;14472;56.880;16.658;2023-07-13T10:15:19;22.60;1.00
26907;DHT22;14472;56.880;16.658;2023-07-13T10:17:45;22.70;1.00
26907;DHT22;14472;56.880;16.658;2023-07-13T10:20:11;22.70;1.00
26907;DHT22;14472;56.880;16.658;2023-07-13T10:22:44;22.70;1.00
26907;DHT22;14472;56.880;16.658;2023-07-13T10:25:23;22.60;1.00
26907;DHT22;14472;56.880;16.658;2023-07-13T10:27:54;22.70;1.00
26907;DHT22;14472;56.880;16.658;2023-07-13T10:30:25;22.80;1.00
26907;DHT22;14472;56.880;16.658;2023-07-13T10:32:53;22.80;1.00
26907;DHT22;14472;56.880;16.658;2023-07-13T10:35:21;22.90;1.00
26907;DHT22;14472;56.880;16.658;2023-07-13T10:37:49;22.90;1.00
26907;DHT22;14472;56.880;16.658;2023-07-13T10:40:26;22.90;1.00
26907;DHT22;14472;56.880;16.658;2023-07-13T10:42:54;23.00;1.00
26907;DHT22;14472;56.880;16.658;2023-07-13T10:45:23;23.00;1.00
26907;DHT22;14472;56.880;16.658;2023-07-13T10:47:51;23.00;1.00
26907;DHT22;14472;56.880;16.658;2023-07-13T10:50:24;23.00;1.00
26907;DHT22;14472;56.880;16.658;2023-07-13T10:52:54;23.00;1.00
26907;DHT22;14472;56.880;16.658;2023-07-13T10:58:20;23.20;1.00
26907;DHT22;14472;56.880;16.658;2023-07-13T11:01:02;23.20;1.00
26907;DHT22;14472;56.880;16.658;2023-07-13T11:03:30;23.30;1.00
26907;DHT22;14472;56.880;16.658;2023-07-13T11:08:53;23.40;1.00
26907;DHT22;14472;56.880;16.658;2023-07-13T11:11:32;23.30;1.00
26907;DHT22;14472;56.880;16.658;2023-07-13T11:14:01;23.40;1.00
26907;DHT22;14472;56.880;16.658;2023-07-13T11:16:56;23.40;1.00
26907;DHT22;14472;56.880;16.658;2023-07-13T11:22:11;23.50;1.00
26907;DHT22;14472;56.880;16.658;2023-07-13T11:24:51;23.50;1.00
26907;DHT22;14472;56.880;16.658;2023-07-13T11:27:42;23.50;1.00
26907;DHT22;14472;56.880;16.658;2023-07-13T11:30:23;23.60;1.00
26907;DHT22;14472;56.880;16.658;2023-07-13T11:32:51;23.50;1.00
26907;DHT22;14472;56.880;16.658;2023-07-13T11:35:28;23.50;1.00
26907;DHT22;14472;56.880;16.658;2023-07-13T11:37:54;23.70;1.00
26907;DHT22;14472;56.880;16.658;2023-07-13T11:40:22;23.70;1.00
26907;DHT22;14472;56.880;16.658;2023-07-13T11:42:51;23.80;1.00
26907;DHT22;14472;56.880;16.658;2023-07-13T11:45:21;23.80;1.00
26907;DHT22;14472;56.880;16.658;2023-07-13T11:47:49;23.90;1.00
26907;DHT22;14472;56.880;16.658;2023-07-13T11:50:23;24.00;1.00
26907;DHT22;14472;56.880;16.658;2023-07-13T11:52:51;24.00;1.00
26907;DHT22;14472;56.880;16.658;2023-07-13T11:55:21;24.10;1.00
26907;DHT22;14472;56.880;16.658;2023-07-13T11:57:57;24.10;1.00
26907;DHT22;14472;56.880;16.658;2023-07-13T12:00:28;24.10;1.00
26907;DHT22;14472;56.880;16.658;2023-07-13T12:02:57;24.10;1.00
26907;DHT22;14472;56.880;16.658;2023-07-13T12:05:24;24.10;1.00
26907;DHT22;14472;56.880;16.658;2023-07-13T12:07:51;24.10;1.00
26907;DHT22;14472;56.880;16.658;2023-07-13T12:10:27;24.10;1.00
26907;DHT22;14472;56.880;16.658;2023-07-13T12:13:02;24.00;1.00
26907;DHT22;14472;56.880;16.658;2023-07-13T12:15:38;24.00;1.00
26907;DHT22;14472;56.880;16.658;2023-07-13T12:18:17;24.10;1.00
26907;DHT22;14472;56.880;16.658;2023-07-13T12:20:45;24.00;1.00
26907;DHT22;14472;56.880;16.658;2023-07-13T12:23:32;24.00;1.00
26907;DHT22;14472;56.880;16.658;2023-07-13T12:26:00;24.10;1.00
26907;DHT22;14472;56.880;16.658;2023-07-13T12:28:31;24.10;1.00
26907;DHT22;14472;56.880;16.658;2023-07-13T12:31:03;24.10;1.00
26907;DHT22;14472;56.880;16.658;2023-07-13T12:33:30;24.10;1.00
26907;DHT22;14472;56.880;16.658;2023-07-13T12:35:59;24.20;1.00
26907;DHT22;14472;56.880;16.658;2023-07-13T12:38:27;24.20;1.00
26907;DHT22;14472;56.880;16.658;2023-07-13T12:40:53;24.20;1.00
26907;DHT22;14472;56.880;16.658;2023-07-13T12:43:23;24.20;1.00
26907;DHT22;14472;56.880;16.658;2023-07-13T12:46:17;24.30;1.00
26907;DHT22;14472;56.880;16.658;2023-07-13T12:48:43;24.40;1.00
26907;DHT22;14472;56.880;16.658;2023-07-13T12:51:14;24.30;1.00
26907;DHT22;14472;56.880;16.658;2023-07-13T12:53:43;24.30;1.00
26907;DHT22;14472;56.880;16.658;2023-07-13T12:56:21;24.20;1.00
26907;DHT22;14472;56.880;16.658;2023-07-13T12:58:48;24.20;1.00
26907;DHT22;14472;56.880;16.658;2023-07-13T13:01:25;24.20;1.00
26907;DHT22;14472;56.880;16.658;2023-07-13T13:03:53;24.10;1.00
26907;DHT22;14472;56.880;16.658;2023-07-13T13:06:24;24.10;1.00
26907;DHT22;14472;56.880;16.658;2023-07-13T13:08:52;24.10;1.00
26907;DHT22;14472;56.880;16.658;2023-07-13T13:11:20;23.90;1.00
26907;DHT22;14472;56.880;16.658;2023-07-13T13:13:46;23.90;1.00
26907;DHT22;14472;56.880;16.658;2023-07-13T13:18:52;23.70;1.00
26907;DHT22;14472;56.880;16.658;2023-07-13T13:21:18;23.50;1.00
26907;DHT22;14472;56.880;16.658;2023-07-13T13:23:45;23.30;1.00
26907;DHT22;14472;56.880;16.658;2023-07-13T13:26:15;23.20;1.00
26907;DHT22;14472;56.880;16.658;2023-07-13T13:28:42;23.00;1.00
26907;DHT22;14472;56.880;16.658;2023-07-13T13:31:09;22.80;1.00
26907;DHT22;14472;56.880;16.658;2023-07-13T13:33:43;22.50;1.00
26907;DHT22;14472;56.880;16.658;2023-07-13T13:36:22;22.40;1.00
26907;DHT22;14472;56.880;16.658;2023-07-13T13:38:49;22.30;1.00
26907;DHT22;14472;56.880;16.658;2023-07-13T13:41:16;22.10;1.00
26907;DHT22;14472;56.880;16.658;2023-07-13T13:43:43;21.90;1.00
26907;DHT22;14472;56.880;16.658;2023-07-13T13:46:22;21.80;1.00
26907;DHT22;14472;56.880;16.658;2023-07-13T13:48:50;21.60;1.00
26907;DHT22;14472;56.880;16.658;2023-07-13T13:51:18;21.50;1.00
26907;DHT22;14472;56.880;16.658;2023-07-13T13:53:45;21.40;1.00
26907;DHT22;14472;56.880;16.658;2023-07-13T13:56:12;21.40;1.00
26907;DHT22;14472;56.880;16.658;2023-07-13T13:58:39;21.40;1.00
26907;DHT22;14472;56.880;16.658;2023-07-13T14:01:10;21.30;1.00
26907;DHT22;14472;56.880;16.658;2023-07-13T14:03:37;21.30;1.00
26907;DHT22;14472;56.880;16.658;2023-07-13T14:06:03;21.20;1.00
26907;DHT22;14472;56.880;16.658;2023-07-13T14:08:29;21.20;1.00
26907;DHT22;14472;56.880;16.658;2023-07-13T14:10:57;21.10;1.00
26907;DHT22;14472;56.880;16.658;2023-07-13T14:13:54;21.10;1.00
26907;DHT22;14472;56.880;16.658;2023-07-13T14:16:22;21.20;1.00
26907;DHT22;14472;56.880;16.658;2023-07-13T14:18:53;21.20;1.00
26907;DHT22;14472;56.880;16.658;2023-07-13T14:21:22;21.20;1.00
26907;DHT22;14472;56.880;16.658;2023-07-13T14:23:48;21.20;1.00
26907;DHT22;14472;56.880;16.658;2023-07-13T14:26:19;21.20;1.00
26907;DHT22;14472;56.880;16.658;2023-07-13T14:28:48;21.20;1.00
26907;DHT22;14472;56.880;16.658;2023-07-13T14:31:16;21.20;1.00
26907;DHT22;14472;56.880;16.658;2023-07-13T14:33:42;21.20;1.00
26907;DHT22;14472;56.880;16.658;2023-07-13T14:38:55;21.20;1.00
26907;DHT22;14472;56.880;16.658;2023-07-13T14:41:21;21.20;1.00
26907;DHT22;14472;56.880;16.658;2023-07-13T14:43:47;21.20;1.00
26907;DHT22;14472;56.880;16.658;2023-07-13T14:46:30;21.20;1.00
26907;DHT22;14472;56.880;16.658;2023-07-13T14:49:27;21.20;1.00
26907;DHT22;14472;56.880;16.658;2023-07-13T14:51:55;21.20;1.00
26907;DHT22;14472;56.880;16.658;2023-07-13T14:54:23;21.20;1.00
26907;DHT22;14472;56.880;16.658;2023-07-13T14:56:49;21.30;1.00
26907;DHT22;14472;56.880;16.658;2023-07-13T14:59:16;21.30;1.00
26907;DHT22;14472;56.880;16.658;2023-07-13T15:01:44;21.30;1.00
26907;DHT22;14472;56.880;16.658;2023-07-13T15:04:11;21.40;1.00
26907;DHT22;14472;56.880;16.658;2023-07-13T15:06:58;21.40;1.00
26907;DHT22;14472;56.880;16.658;2023-07-13T15:09:25;21.50;1.00
26907;DHT22;14472;56.880;16.658;2023-07-13T15:11:58;21.50;1.00
26907;DHT22;14472;56.880;16.658;2023-07-13T15:14:24;21.70;1.00
26907;DHT22;14472;56.880;16.658;2023-07-13T15:16:53;21.60;1.00
26907;DHT22;14472;56.880;16.658;2023-07-13T15:19:20;21.60;1.00
26907;DHT22;14472;56.880;16.658;2023-07-13T15:21:47;21.70;1.00
26907;DHT22;14472;56.880;16.658;2023-07-13T15:24:13;21.70;1.00
26907;DHT22;14472;56.880;16.658;2023-07-13T15:26:39;21.70;1.00
26907;DHT22;14472;56.880;16.658;2023-07-13T15:29:05;21.70;1.00
26907;DHT22;14472;56.880;16.658;2023-07-13T15:31:32;21.70;1.00
26907;DHT22;14472;56.880;16.658;2023-07-13T15:33:59;21.60;1.00
26907;DHT22;14472;56.880;16.658;2023-07-13T15:36:25;21.70;1.00
26907;DHT22;14472;56.880;16.658;2023-07-13T15:38:53;21.60;1.00
26907;DHT22;14472;56.880;16.658;2023-07-13T15:41:25;21.70;1.00
26907;DHT22;14472;56.880;16.658;2023-07-13T15:43:53;21.70;1.00
26907;DHT22;14472;56.880;16.658;2023-07-13T15:46:20;21.70;1.00
26907;DHT22;14472;56.880;16.658;2023-07-13T15:48:50;21.70;1.00
26907;DHT22;14472;56.880;16.658;2023-07-13T15:51:36;21.60;1.00
26907;DHT22;14472;56.880;16.658;2023-07-13T15:54:03;21.70;1.00
26907;DHT22;14472;56.880;16.658;2023-07-13T15:56:31;21.60;1.00
26907;DHT22;14472;56.880;16.658;2023-07-13T15:58:59;21.50;1.00
26907;DHT22;14472;56.880;16.658;2023-07-13T16:01:25;21.50;1.00